N326LP KFXE-KX01
Flight info
| Callsign | N326LP |
|---|---|
| Flight time | N/A |
| Altitude | 2500 |
| Route | EVERGLADES VPCTE |
| Aircraft | C172/L-SFG/C |
Departure
| Time | 2026-04-24 19:57 |
|---|---|
| Airport | Fort Lauderdale Executive Airport (KFXE) |
Arrival
| Time | N/A |
|---|---|
| Airport | KX01 |
| Time | Latitude | Longitude | Altitude | Speed | Heading |
|---|---|---|---|---|---|
| 2026-04-24 19:37 | 26.19618 | -80.17755 | 9 ft | 0 kts | 181° |
| 2026-04-24 19:49 | 26.19614 | -80.17754 | 9 ft | 0 kts | 136° |
| 2026-04-24 19:50 | 26.19613 | -80.17796 | 9 ft | 0 kts | 336° |
| 2026-04-24 19:53 | 26.19619 | -80.17798 | 9 ft | 1 kts | 352° |
| 2026-04-24 19:53 | 26.19635 | -80.17799 | 9 ft | 2 kts | 359° |
| 2026-04-24 19:53 | 26.19693 | -80.17792 | 9 ft | 6 kts | 83° |
| 2026-04-24 19:54 | 26.19697 | -80.17740 | 9 ft | 8 kts | 83° |
| 2026-04-24 19:54 | 26.19705 | -80.17658 | 9 ft | 12 kts | 83° |
| 2026-04-24 19:54 | 26.19715 | -80.17547 | 9 ft | 16 kts | 82° |
| 2026-04-24 19:54 | 26.19729 | -80.17419 | 9 ft | 16 kts | 83° |
| 2026-04-24 19:55 | 26.19737 | -80.17334 | 9 ft | 15 kts | 84° |
| 2026-04-24 19:55 | 26.19742 | -80.17286 | 9 ft | 0 kts | 83° |
| 2026-04-24 19:55 | 26.19743 | -80.17273 | 9 ft | 5 kts | 82° |
| 2026-04-24 19:55 | 26.19751 | -80.17201 | 9 ft | 13 kts | 89° |
| 2026-04-24 19:56 | 26.19661 | -80.17057 | 9 ft | 43 kts | 127° |
| 2026-04-24 19:56 | 26.19410 | -80.16736 | 130 ft | 59 kts | 130° |
| 2026-04-24 19:56 | 26.19107 | -80.16365 | 250 ft | 68 kts | 134° |
| 2026-04-24 19:56 | 26.18770 | -80.16009 | 419 ft | 70 kts | 136° |
| 2026-04-24 19:57 | 26.18378 | -80.15685 | 590 ft | 72 kts | 147° |
| 2026-04-24 19:57 | 26.17910 | -80.15479 | 746 ft | 77 kts | 175° |
| 2026-04-24 19:57 | 26.17446 | -80.15836 | 891 ft | 91 kts | 242° |
| 2026-04-24 19:57 | 26.17360 | -80.16526 | 1121 ft | 86 kts | 266° |
| 2026-04-24 19:58 | 26.17366 | -80.17171 | 1268 ft | 90 kts | 271° |
| 2026-04-24 19:58 | 26.17405 | -80.17871 | 1459 ft | 87 kts | 274° |
| 2026-04-24 19:58 | 26.17508 | -80.18552 | 1596 ft | 92 kts | 284° |
| 2026-04-24 19:58 | 26.17700 | -80.19211 | 1771 ft | 90 kts | 293° |
| 2026-04-24 19:59 | 26.17963 | -80.19880 | 1837 ft | 97 kts | 294° |
| 2026-04-24 19:59 | 26.18152 | -80.20611 | 1864 ft | 102 kts | 285° |
| 2026-04-24 19:59 | 26.18309 | -80.21357 | 1930 ft | 102 kts | 280° |
| 2026-04-24 19:59 | 26.18387 | -80.22163 | 1959 ft | 105 kts | 276° |
| 2026-04-24 20:00 | 26.18473 | -80.22999 | 1956 ft | 110 kts | 280° |
| 2026-04-24 20:00 | 26.18616 | -80.23846 | 1938 ft | 111 kts | 284° |
| 2026-04-24 20:00 | 26.18807 | -80.24681 | 1936 ft | 110 kts | 288° |
| 2026-04-24 20:00 | 26.19027 | -80.25482 | 1938 ft | 109 kts | 285° |
| 2026-04-24 20:01 | 26.19169 | -80.26325 | 1920 ft | 111 kts | 275° |
| 2026-04-24 20:01 | 26.19183 | -80.27174 | 1928 ft | 110 kts | 267° |
| 2026-04-24 20:01 | 26.19123 | -80.28022 | 1935 ft | 109 kts | 262° |
| 2026-04-24 20:01 | 26.19057 | -80.28849 | 1934 ft | 109 kts | 264° |
| 2026-04-24 20:02 | 26.19013 | -80.29417 | 1949 ft | 108 kts | 262° |
| 2026-04-24 20:02 | 26.18847 | -80.30527 | 1924 ft | 111 kts | 257° |
| 2026-04-24 20:02 | 26.18708 | -80.31353 | 1962 ft | 107 kts | 258° |
| 2026-04-24 20:02 | 26.18556 | -80.32183 | 1944 ft | 109 kts | 254° |
| 2026-04-24 20:03 | 26.18337 | -80.32980 | 1957 ft | 108 kts | 246° |
| 2026-04-24 20:03 | 26.18072 | -80.33756 | 1956 ft | 109 kts | 247° |
| 2026-04-24 20:03 | 26.17812 | -80.34552 | 1967 ft | 108 kts | 246° |
| 2026-04-24 20:03 | 26.17537 | -80.35328 | 1969 ft | 108 kts | 246° |
| 2026-04-24 20:04 | 26.17293 | -80.36117 | 1973 ft | 109 kts | 250° |
| 2026-04-24 20:04 | 26.17062 | -80.36927 | 1968 ft | 109 kts | 249° |
| 2026-04-24 20:04 | 26.16837 | -80.37726 | 1981 ft | 108 kts | 255° |
| 2026-04-24 20:04 | 26.16734 | -80.38564 | 1974 ft | 110 kts | 264° |
| 2026-04-24 20:05 | 26.16679 | -80.39419 | 1987 ft | 109 kts | 265° |
| 2026-04-24 20:05 | 26.16652 | -80.40252 | 1992 ft | 109 kts | 270° |
| 2026-04-24 20:05 | 26.16688 | -80.41102 | 1987 ft | 110 kts | 273° |
| 2026-04-24 20:05 | 26.16735 | -80.41943 | 2005 ft | 108 kts | 271° |
| 2026-04-24 20:06 | 26.16737 | -80.42783 | 1995 ft | 110 kts | 268° |
| 2026-04-24 20:06 | 26.16727 | -80.43633 | 2000 ft | 110 kts | 267° |
| 2026-04-24 20:06 | 26.16680 | -80.44479 | 2001 ft | 110 kts | 263° |
| 2026-04-24 20:06 | 26.16588 | -80.45330 | 2126 ft | 106 kts | 259° |
| 2026-04-24 20:07 | 26.16511 | -80.45841 | 2277 ft | 100 kts | 255° |
| 2026-04-24 20:07 | 26.16327 | -80.46853 | 2481 ft | 99 kts | 257° |
| 2026-04-24 20:07 | 26.16180 | -80.47640 | 2490 ft | 107 kts | 255° |
| 2026-04-24 20:07 | 26.15992 | -80.48449 | 2504 ft | 110 kts | 252° |
| 2026-04-24 20:08 | 26.15759 | -80.49286 | 2451 ft | 119 kts | 251° |
| 2026-04-24 20:08 | 26.15524 | -80.50163 | 2435 ft | 120 kts | 253° |
| 2026-04-24 20:08 | 26.15378 | -80.51099 | 2396 ft | 122 kts | 266° |
| 2026-04-24 20:08 | 26.15352 | -80.51981 | 2542 ft | 109 kts | 266° |
| 2026-04-24 20:09 | 26.15304 | -80.52831 | 2551 ft | 112 kts | 263° |
| 2026-04-24 20:09 | 26.15204 | -80.53690 | 2611 ft | 109 kts | 259° |
| 2026-04-24 20:09 | 26.15066 | -80.54507 | 2586 ft | 116 kts | 258° |
| 2026-04-24 20:09 | 26.15004 | -80.55455 | 2447 ft | 126 kts | 267° |
| 2026-04-24 20:10 | 26.14977 | -80.56435 | 2401 ft | 124 kts | 268° |
| 2026-04-24 20:10 | 26.14978 | -80.57388 | 2387 ft | 122 kts | 271° |
| 2026-04-24 20:10 | 26.15009 | -80.58321 | 2397 ft | 119 kts | 273° |
| 2026-04-24 20:10 | 26.15066 | -80.59229 | 2401 ft | 113 kts | 272° |
| 2026-04-24 20:11 | 26.15083 | -80.60074 | 2454 ft | 106 kts | 269° |
| 2026-04-24 20:11 | 26.15067 | -80.60904 | 2449 ft | 107 kts | 268° |
| 2026-04-24 20:11 | 26.15058 | -80.61742 | 2413 ft | 111 kts | 268° |
| 2026-04-24 20:11 | 26.15047 | -80.62598 | 2420 ft | 109 kts | 268° |
| 2026-04-24 20:12 | 26.15032 | -80.63439 | 2414 ft | 109 kts | 268° |
| 2026-04-24 20:12 | 26.15011 | -80.64283 | 2425 ft | 108 kts | 266° |
| 2026-04-24 20:12 | 26.14953 | -80.65110 | 2434 ft | 107 kts | 262° |
| 2026-04-24 20:12 | 26.14875 | -80.65942 | 2407 ft | 108 kts | 263° |
| 2026-04-24 20:13 | 26.14823 | -80.66690 | 2396 ft | 108 kts | 265° |
| 2026-04-24 20:13 | 26.14791 | -80.67556 | 2389 ft | 107 kts | 265° |
| 2026-04-24 20:13 | 26.14805 | -80.68391 | 2408 ft | 104 kts | 273° |
| 2026-04-24 20:13 | 26.14869 | -80.69191 | 2405 ft | 105 kts | 274° |
| 2026-04-24 20:14 | 26.14947 | -80.69994 | 2426 ft | 103 kts | 277° |
| 2026-04-24 20:14 | 26.15071 | -80.70792 | 2412 ft | 105 kts | 279° |
| 2026-04-24 20:14 | 26.15161 | -80.71593 | 2436 ft | 102 kts | 274° |
| 2026-04-24 20:14 | 26.15256 | -80.72386 | 2428 ft | 104 kts | 279° |
| 2026-04-24 20:15 | 26.15375 | -80.73176 | 2428 ft | 104 kts | 278° |
| 2026-04-24 20:15 | 26.15473 | -80.73970 | 2427 ft | 104 kts | 277° |
| 2026-04-24 20:15 | 26.15580 | -80.74768 | 2421 ft | 104 kts | 278° |
| 2026-04-24 20:15 | 26.15669 | -80.75567 | 2432 ft | 103 kts | 272° |
| 2026-04-24 20:16 | 26.15732 | -80.76372 | 2431 ft | 104 kts | 274° |
| 2026-04-24 20:16 | 26.15780 | -80.77155 | 2467 ft | 102 kts | 272° |
| 2026-04-24 20:16 | 26.15843 | -80.77962 | 2441 ft | 105 kts | 274° |
| 2026-04-24 20:16 | 26.15888 | -80.78766 | 2485 ft | 101 kts | 270° |
| 2026-04-24 20:17 | 26.15927 | -80.79565 | 2450 ft | 107 kts | 275° |
| 2026-04-24 20:17 | 26.16237 | -80.81132 | 2512 ft | 101 kts | 287° |
| 2026-04-24 20:17 | 26.16446 | -80.81892 | 2502 ft | 103 kts | 284° |
| 2026-04-24 20:18 | 26.16558 | -80.82408 | 2527 ft | 101 kts | 283° |
| 2026-04-24 20:18 | 26.16767 | -80.83437 | 2516 ft | 104 kts | 279° |
| 2026-04-24 20:18 | 26.16852 | -80.84229 | 2538 ft | 101 kts | 272° |
| 2026-04-24 20:18 | 26.16895 | -80.85008 | 2526 ft | 103 kts | 269° |
| 2026-04-24 20:19 | 26.16889 | -80.85795 | 2537 ft | 102 kts | 269° |
| 2026-04-24 20:19 | 26.16919 | -80.86595 | 2539 ft | 102 kts | 271° |
| 2026-04-24 20:19 | 26.16952 | -80.87388 | 2534 ft | 103 kts | 273° |
| 2026-04-24 20:19 | 26.16995 | -80.88171 | 2556 ft | 101 kts | 271° |
| 2026-04-24 20:20 | 26.17047 | -80.88951 | 2543 ft | 103 kts | 276° |
| 2026-04-24 20:20 | 26.17127 | -80.89751 | 2517 ft | 106 kts | 273° |
| 2026-04-24 20:20 | 26.17163 | -80.90602 | 2462 ft | 109 kts | 271° |
| 2026-04-24 20:20 | 26.17187 | -80.91425 | 2476 ft | 106 kts | 271° |
| 2026-04-24 20:21 | 26.17251 | -80.92268 | 2426 ft | 109 kts | 276° |
| 2026-04-24 20:21 | 26.17321 | -80.93082 | 2441 ft | 106 kts | 271° |
| 2026-04-24 20:21 | 26.17320 | -80.93919 | 2400 ft | 108 kts | 268° |
| 2026-04-24 20:21 | 26.17316 | -80.94745 | 2403 ft | 107 kts | 268° |
| 2026-04-24 20:22 | 26.17297 | -80.95589 | 2375 ft | 108 kts | 266° |
| 2026-04-24 20:22 | 26.17260 | -80.96426 | 2378 ft | 106 kts | 265° |
| 2026-04-24 20:22 | 26.17183 | -80.97235 | 2360 ft | 107 kts | 261° |
| 2026-04-24 20:22 | 26.17093 | -80.98064 | 2364 ft | 104 kts | 262° |
| 2026-04-24 20:23 | 26.17006 | -80.98843 | 2412 ft | 99 kts | 261° |
| 2026-04-24 20:23 | 26.16915 | -80.99599 | 2441 ft | 98 kts | 259° |
| 2026-04-24 20:23 | 26.16853 | -81.00354 | 2475 ft | 97 kts | 263° |
| 2026-04-24 20:23 | 26.16772 | -81.01108 | 2480 ft | 98 kts | 260° |
| 2026-04-24 20:24 | 26.16721 | -81.01593 | 2501 ft | 97 kts | 262° |
| 2026-04-24 20:24 | 26.16665 | -81.02609 | 2515 ft | 98 kts | 268° |
| 2026-04-24 20:24 | 26.16680 | -81.03367 | 2537 ft | 98 kts | 273° |
| 2026-04-24 20:24 | 26.16728 | -81.04139 | 2501 ft | 103 kts | 271° |
| 2026-04-24 20:25 | 26.16739 | -81.04930 | 2496 ft | 105 kts | 269° |
| 2026-04-24 20:25 | 26.16759 | -81.05763 | 2467 ft | 107 kts | 272° |
| 2026-04-24 20:25 | 26.16799 | -81.06582 | 2474 ft | 107 kts | 271° |
| 2026-04-24 20:25 | 26.16797 | -81.07408 | 2497 ft | 104 kts | 267° |
| 2026-04-24 20:26 | 26.16778 | -81.08230 | 2485 ft | 107 kts | 267° |
| 2026-04-24 20:26 | 26.16766 | -81.09041 | 2506 ft | 104 kts | 269° |
| 2026-04-24 20:26 | 26.16770 | -81.09873 | 2488 ft | 107 kts | 268° |
| 2026-04-24 20:26 | 26.16778 | -81.10693 | 2514 ft | 104 kts | 270° |
| 2026-04-24 20:27 | 26.16788 | -81.11507 | 2493 ft | 107 kts | 270° |
| 2026-04-24 20:27 | 26.16802 | -81.12333 | 2510 ft | 105 kts | 270° |
| 2026-04-24 20:27 | 26.16808 | -81.13155 | 2497 ft | 106 kts | 268° |
| 2026-04-24 20:27 | 26.16797 | -81.13976 | 2508 ft | 105 kts | 267° |
| 2026-04-24 20:28 | 26.16819 | -81.14794 | 2504 ft | 106 kts | 272° |
| 2026-04-24 20:28 | 26.16864 | -81.15611 | 2502 ft | 106 kts | 271° |
| 2026-04-24 20:28 | 26.16873 | -81.16425 | 2517 ft | 105 kts | 268° |
| 2026-04-24 20:28 | 26.16845 | -81.17251 | 2498 ft | 107 kts | 266° |
| 2026-04-24 20:29 | 26.16820 | -81.17797 | 2520 ft | 104 kts | 266° |
| 2026-04-24 20:29 | 26.16783 | -81.18894 | 2501 ft | 107 kts | 266° |
| 2026-04-24 20:29 | 26.16760 | -81.19714 | 2529 ft | 104 kts | 267° |
| 2026-04-24 20:29 | 26.16733 | -81.20536 | 2504 ft | 107 kts | 265° |
| 2026-04-24 20:30 | 26.16670 | -81.21354 | 2519 ft | 106 kts | 262° |
| 2026-04-24 20:30 | 26.16570 | -81.22164 | 2527 ft | 105 kts | 259° |
| 2026-04-24 20:30 | 26.16438 | -81.22959 | 2541 ft | 104 kts | 256° |
| 2026-04-24 20:30 | 26.16284 | -81.23768 | 2523 ft | 107 kts | 256° |
| 2026-04-24 20:31 | 26.16175 | -81.24573 | 2555 ft | 104 kts | 262° |
| 2026-04-24 20:31 | 26.16104 | -81.25379 | 2537 ft | 107 kts | 262° |
| 2026-04-24 20:31 | 26.16003 | -81.26198 | 2562 ft | 104 kts | 262° |
| 2026-04-24 20:31 | 26.15954 | -81.27014 | 2526 ft | 108 kts | 265° |
| 2026-04-24 20:32 | 26.15922 | -81.27861 | 2489 ft | 111 kts | 266° |
| 2026-04-24 20:32 | 26.15909 | -81.28718 | 2483 ft | 110 kts | 268° |
| 2026-04-24 20:32 | 26.15911 | -81.29568 | 2475 ft | 109 kts | 269° |
| 2026-04-24 20:32 | 26.15908 | -81.30424 | 2435 ft | 112 kts | 268° |
| 2026-04-24 20:33 | 26.15883 | -81.31277 | 2448 ft | 108 kts | 265° |
| 2026-04-24 20:33 | 26.15835 | -81.32127 | 2419 ft | 110 kts | 264° |
| 2026-04-24 20:33 | 26.15811 | -81.32977 | 2411 ft | 110 kts | 269° |
| 2026-04-24 20:33 | 26.15679 | -81.33822 | 2372 ft | 110 kts | 243° |
| 2026-04-24 20:34 | 26.15141 | -81.34369 | 2321 ft | 109 kts | 198° |
| 2026-04-24 20:34 | 26.14461 | -81.34531 | 2454 ft | 90 kts | 180° |
| 2026-04-24 20:34 | 26.13833 | -81.34545 | 2483 ft | 89 kts | 174° |
| 2026-04-24 20:34 | 26.13198 | -81.34529 | 2502 ft | 91 kts | 176° |
| 2026-04-24 20:35 | 26.12556 | -81.34543 | 2518 ft | 92 kts | 178° |
| 2026-04-24 20:35 | 26.11914 | -81.34518 | 2542 ft | 91 kts | 174° |
| 2026-04-24 20:35 | 26.11269 | -81.34495 | 2523 ft | 96 kts | 175° |
| 2026-04-24 20:35 | 26.10568 | -81.34493 | 2483 ft | 100 kts | 178° |
| 2026-04-24 20:36 | 26.09866 | -81.34538 | 2454 ft | 102 kts | 181° |
| 2026-04-24 20:36 | 26.09170 | -81.34616 | 2457 ft | 101 kts | 183° |
| 2026-04-24 20:36 | 26.08461 | -81.34712 | 2432 ft | 102 kts | 184° |
| 2026-04-24 20:36 | 26.07758 | -81.34813 | 2415 ft | 102 kts | 183° |
| 2026-04-24 20:37 | 26.07052 | -81.34890 | 2401 ft | 101 kts | 181° |
| 2026-04-24 20:37 | 26.06348 | -81.34925 | 2385 ft | 101 kts | 178° |
| 2026-04-24 20:37 | 26.05642 | -81.34950 | 2371 ft | 101 kts | 178° |
| 2026-04-24 20:37 | 26.04939 | -81.34959 | 2358 ft | 100 kts | 177° |
| 2026-04-24 20:38 | 26.04231 | -81.34972 | 2347 ft | 101 kts | 177° |
| 2026-04-24 20:38 | 26.03539 | -81.34972 | 2327 ft | 101 kts | 175° |
| 2026-04-24 20:38 | 26.02836 | -81.34959 | 2330 ft | 100 kts | 175° |
| 2026-04-24 20:38 | 26.02166 | -81.34940 | 2392 ft | 93 kts | 175° |
| 2026-04-24 20:39 | 26.01521 | -81.34933 | 2434 ft | 91 kts | 175° |
| 2026-04-24 20:39 | 26.00895 | -81.34920 | 2446 ft | 92 kts | 175° |
| 2026-04-24 20:39 | 26.00254 | -81.34936 | 2479 ft | 91 kts | 179° |
| 2026-04-24 20:39 | 25.99631 | -81.34953 | 2482 ft | 93 kts | 176° |
| 2026-04-24 20:40 | 25.98977 | -81.35016 | 2518 ft | 92 kts | 186° |
| 2026-04-24 20:40 | 25.98331 | -81.35133 | 2533 ft | 93 kts | 185° |
| 2026-04-24 20:40 | 25.97705 | -81.35249 | 2551 ft | 93 kts | 187° |
| 2026-04-24 20:40 | 25.97051 | -81.35352 | 2571 ft | 93 kts | 183° |
| 2026-04-24 20:41 | 25.96408 | -81.35455 | 2587 ft | 94 kts | 186° |
| 2026-04-24 20:41 | 25.95746 | -81.35598 | 2530 ft | 101 kts | 187° |
| 2026-04-24 20:41 | 25.95029 | -81.35770 | 2441 ft | 108 kts | 191° |
| 2026-04-24 20:41 | 25.94307 | -81.35988 | 2416 ft | 107 kts | 193° |
| 2026-04-24 20:42 | 25.93595 | -81.36258 | 2360 ft | 108 kts | 198° |
| 2026-04-24 20:42 | 25.92895 | -81.36574 | 2146 ft | 112 kts | 202° |
| 2026-04-24 20:42 | 25.92228 | -81.36969 | 1938 ft | 111 kts | 207° |
| 2026-04-24 20:42 | 25.91556 | -81.37323 | 1794 ft | 103 kts | 193° |
| 2026-04-24 20:43 | 25.90864 | -81.37523 | 1614 ft | 101 kts | 193° |
| 2026-04-24 20:43 | 25.90198 | -81.37743 | 1442 ft | 98 kts | 192° |
| 2026-04-24 20:43 | 25.89551 | -81.37962 | 1303 ft | 94 kts | 193° |
| 2026-04-24 20:43 | 25.88915 | -81.38142 | 1146 ft | 92 kts | 187° |
| 2026-04-24 20:44 | 25.88292 | -81.38277 | 1006 ft | 91 kts | 188° |
| 2026-04-24 20:44 | 25.87662 | -81.38399 | 865 ft | 89 kts | 185° |
| 2026-04-24 20:44 | 25.87059 | -81.38518 | 827 ft | 85 kts | 184° |
| 2026-04-24 20:44 | 25.86465 | -81.38549 | 793 ft | 84 kts | 176° |
| 2026-04-24 20:45 | 25.85878 | -81.38565 | 762 ft | 85 kts | 179° |
| 2026-04-24 20:45 | 25.85281 | -81.38706 | 698 ft | 89 kts | 196° |
| 2026-04-24 20:45 | 25.84765 | -81.39111 | 649 ft | 91 kts | 216° |
| 2026-04-24 20:45 | 25.84244 | -81.39465 | 640 ft | 87 kts | 216° |
| 2026-04-24 20:46 | 25.84180 | -81.40063 | 655 ft | 79 kts | 299° |
| 2026-04-24 20:46 | 25.84504 | -81.40547 | 616 ft | 81 kts | 312° |
| 2026-04-24 20:46 | 25.84907 | -81.41007 | 506 ft | 80 kts | 333° |
| 2026-04-24 20:46 | 25.85408 | -81.41027 | 423 ft | 75 kts | 33° |
| 2026-04-24 20:47 | 25.85829 | -81.40677 | 420 ft | 75 kts | 46° |
| 2026-04-24 20:47 | 25.86101 | -81.40233 | 401 ft | 62 kts | 90° |
| 2026-04-24 20:47 | 25.85963 | -81.39809 | 268 ft | 58 kts | 126° |
| 2026-04-24 20:47 | 25.85647 | -81.39527 | 158 ft | 57 kts | 144° |
| 2026-04-24 20:48 | 25.85291 | -81.39294 | 61 ft | 59 kts | 147° |
| 2026-04-24 20:48 | 25.84975 | -81.39089 | 6 ft | 42 kts | 152° |
| 2026-04-24 20:48 | 25.84844 | -81.38974 | 6 ft | 9 kts | 53° |
| 2026-04-24 20:48 | 25.84883 | -81.38975 | 5 ft | 4 kts | 329° |
| 2026-04-24 20:49 | 25.84913 | -81.38995 | 5 ft | 5 kts | 323° |
| 2026-04-24 20:49 | 25.84949 | -81.39008 | 5 ft | 0 kts | 20° |
| 2026-04-24 20:49 | 25.84959 | -81.39016 | 5 ft | 0 kts | 272° |